PRIVATE WETTERSTATION BILLIGHEIM-ALLFELD                       ZURCK
Wetterdaten: Samstag, 28.01.2017
Datum Zeit Temp. A. Temp. A. min Temp. A. max Feuchte A. Luftdruck Regen Wind Richtung Richtung Sonnenschein ET Solar Taupunkt Windchill Windben Empfang
28.01.2017 00:00 -4,1 C -4,2 C -4,1 C 81 % 1020,5 hPa 0,0 l/m 1,6 km/h (1 Bft) N-NO 22 0 min 0,000 mm 0 W/m -6,9 C -4,1 C 6,4 km/h (2 Bft) 98 %
28.01.2017 00:10 -3,9 C -4,1 C -3,9 C 80 % 1020,5 hPa 0,0 l/m 1,6 km/h (1 Bft) N-NO 22 0 min 0,000 mm 0 W/m -6,8 C -3,9 C 6,4 km/h (2 Bft) 99 %
28.01.2017 00:20 -4,1 C -4,1 C -3,9 C 79 % 1020,4 hPa 0,0 l/m 0,0 km/h (0 Bft) N 0 0 min 0,000 mm 0 W/m -7,2 C -4,1 C 0,0 km/h (0 Bft) 97 %
28.01.2017 00:30 -4,2 C -4,2 C -4,0 C 80 % 1020,3 hPa 0,0 l/m 0,0 km/h (0 Bft) N 0 0 min 0,000 mm 0 W/m -7,1 C -4,2 C 0,0 km/h (0 Bft) 89 %
28.01.2017 00:40 -4,4 C -4,4 C -4,2 C 81 % 1020,0 hPa 0,0 l/m 0,0 km/h (0 Bft) N 0 0 min 0,000 mm 0 W/m -7,2 C -4,4 C 0,0 km/h (0 Bft) 98 %
28.01.2017 00:50 -4,4 C -4,5 C -4,4 C 81 % 1020,1 hPa 0,0 l/m 0,0 km/h (0 Bft) N 0 0 min 0,000 mm 0 W/m -7,2 C -4,4 C 0,0 km/h (0 Bft) 97 %
28.01.2017 01:00 -4,6 C -4,6 C -4,4 C 81 % 1020,0 hPa 0,0 l/m 0,0 km/h (0 Bft) N 0 0 min 0,000 mm 0 W/m -7,4 C -4,6 C 0,0 km/h (0 Bft) 97 %
28.01.2017 01:10 -4,7 C -4,7 C -4,6 C 81 % 1020,1 hPa 0,0 l/m 0,0 km/h (0 Bft) N 0 0 min 0,000 mm 0 W/m -7,4 C -4,7 C 0,0 km/h (0 Bft) 96 %
28.01.2017 01:20 -4,8 C -4,8 C -4,7 C 81 % 1020,0 hPa 0,0 l/m 0,0 km/h (0 Bft) N-NO 22 0 min 0,000 mm 0 W/m -7,5 C -4,8 C 1,6 km/h (1 Bft) 98 %
28.01.2017 01:30 -4,8 C -4,9 C -4,8 C 81 % 1020,1 hPa 0,0 l/m 0,0 km/h (0 Bft) N 0 0 min 0,000 mm 0 W/m -7,5 C -4,8 C 0,0 km/h (0 Bft) 97 %
28.01.2017 01:40 -4,8 C -4,9 C -4,8 C 82 % 1020,1 hPa 0,0 l/m 0,0 km/h (0 Bft) N 0 0 min 0,000 mm 0 W/m -7,4 C -4,8 C 0,0 km/h (0 Bft) 97 %
28.01.2017 01:50 -4,9 C -4,9 C -4,8 C 80 % 1019,9 hPa 0,0 l/m 0,0 km/h (0 Bft) N-NO 22 0 min 0,000 mm 0 W/m -7,8 C -4,9 C 6,4 km/h (2 Bft) 98 %
28.01.2017 02:00 -5,2 C -5,2 C -4,9 C 81 % 1019,8 hPa 0,0 l/m 3,2 km/h (1 Bft) N-NO 22 0 min 0,000 mm 0 W/m -7,9 C -5,2 C 6,4 km/h (2 Bft) 98 %
28.01.2017 02:10 -5,3 C -5,3 C -5,2 C 82 % 1019,7 hPa 0,0 l/m 4,8 km/h (1 Bft) N-NO 22 0 min 0,000 mm 0 W/m -7,9 C -5,3 C 8,0 km/h (2 Bft) 98 %
28.01.2017 02:20 -5,1 C -5,3 C -5,1 C 81 % 1019,8 hPa 0,0 l/m 4,8 km/h (1 Bft) N-NO 22 0 min 0,000 mm 0 W/m -7,8 C -5,1 C 8,0 km/h (2 Bft) 98 %
28.01.2017 02:30 -4,7 C -5,1 C -4,7 C 81 % 1020,0 hPa 0,0 l/m 0,0 km/h (0 Bft) NO 45 0 min 0,000 mm 0 W/m -7,4 C -4,7 C 6,4 km/h (2 Bft) 97 %
28.01.2017 02:40 -4,7 C -4,7 C -4,7 C 80 % 1020,1 hPa 0,0 l/m 0,0 km/h (0 Bft) N-NO 22 0 min 0,000 mm 0 W/m -7,6 C -4,7 C 1,6 km/h (1 Bft) 98 %
28.01.2017 02:50 -4,5 C -4,7 C -4,5 C 80 % 1020,0 hPa 0,0 l/m 0,0 km/h (0 Bft) N 0 0 min 0,000 mm 0 W/m -7,4 C -4,5 C 0,0 km/h (0 Bft) 97 %
28.01.2017 03:00 -4,7 C -4,7 C -4,5 C 80 % 1019,9 hPa 0,0 l/m 0,0 km/h (0 Bft) N 0 0 min 0,000 mm 0 W/m -7,6 C -4,7 C 0,0 km/h (0 Bft) 98 %
28.01.2017 03:10 -4,9 C -4,9 C -4,7 C 80 % 1020,0 hPa 0,0 l/m 0,0 km/h (0 Bft) N-NO 22 0 min 0,000 mm 0 W/m -7,8 C -4,9 C 4,8 km/h (1 Bft) 98 %
28.01.2017 03:20 -5,1 C -5,1 C -4,9 C 80 % 1019,9 hPa 0,0 l/m 0,0 km/h (0 Bft) N 0 0 min 0,000 mm 0 W/m -8,0 C -5,1 C 0,0 km/h (0 Bft) 98 %
28.01.2017 03:30 -5,2 C -5,2 C -5,1 C 81 % 1019,8 hPa 0,0 l/m 0,0 km/h (0 Bft) N 0 0 min 0,000 mm 0 W/m -7,9 C -5,2 C 0,0 km/h (0 Bft) 88 %
28.01.2017 03:40 -5,3 C -5,3 C -5,2 C 81 % 1019,8 hPa 0,0 l/m 0,0 km/h (0 Bft) N-NO 22 0 min 0,000 mm 0 W/m -8,0 C -5,3 C 1,6 km/h (1 Bft) 97 %
28.01.2017 03:50 -5,3 C -5,3 C -5,2 C 81 % 1019,7 hPa 0,0 l/m 0,0 km/h (0 Bft) N 0 0 min 0,000 mm 0 W/m -8,0 C -5,3 C 0,0 km/h (0 Bft) 98 %
28.01.2017 04:00 -5,3 C -5,4 C -5,3 C 81 % 1019,8 hPa 0,0 l/m 0,0 km/h (0 Bft) N-NO 22 0 min 0,000 mm 0 W/m -8,0 C -5,3 C 4,8 km/h (1 Bft) 98 %
28.01.2017 04:10 -5,2 C -5,3 C -5,2 C 80 % 1019,8 hPa 0,0 l/m 1,6 km/h (1 Bft) N-NO 22 0 min 0,000 mm 0 W/m -8,1 C -5,2 C 4,8 km/h (1 Bft) 98 %
28.01.2017 04:20 -5,3 C -5,3 C -5,2 C 80 % 1019,9 hPa 0,0 l/m 0,0 km/h (0 Bft) N-NO 22 0 min 0,000 mm 0 W/m -8,2 C -5,3 C 3,2 km/h (1 Bft) 98 %
28.01.2017 04:30 -5,4 C -5,4 C -5,3 C 80 % 1019,8 hPa 0,0 l/m 0,0 km/h (0 Bft) N 0 0 min 0,000 mm 0 W/m -8,3 C -5,4 C 0,0 km/h (0 Bft) 97 %
28.01.2017 04:40 -5,8 C -5,8 C -5,4 C 79 % 1019,7 hPa 0,0 l/m 0,0 km/h (0 Bft) N 0 0 min 0,000 mm 0 W/m -8,8 C -5,8 C 0,0 km/h (0 Bft) 97 %
28.01.2017 04:50 -6,0 C -6,0 C -5,8 C 81 % 1019,8 hPa 0,0 l/m 0,0 km/h (0 Bft) N 0 0 min 0,000 mm 0 W/m -8,7 C -6,0 C 0,0 km/h (0 Bft) 97 %
28.01.2017 05:00 -6,2 C -6,3 C -6,0 C 82 % 1019,9 hPa 0,0 l/m 0,0 km/h (0 Bft) N 0 0 min 0,000 mm 0 W/m -8,8 C -6,2 C 0,0 km/h (0 Bft) 98 %
28.01.2017 05:10 -6,3 C -6,3 C -6,2 C 83 % 1019,8 hPa 0,0 l/m 0,0 km/h (0 Bft) N 0 0 min 0,000 mm 0 W/m -8,7 C -6,3 C 0,0 km/h (0 Bft) 97 %
28.01.2017 05:20 -6,4 C -6,4 C -6,3 C 82 % 1019,8 hPa 0,0 l/m 0,0 km/h (0 Bft) N 0 0 min 0,000 mm 0 W/m -9,0 C -6,4 C 0,0 km/h (0 Bft) 98 %
28.01.2017 05:30 -6,6 C -6,6 C -6,4 C 83 % 1019,8 hPa 0,0 l/m 3,2 km/h (1 Bft) N-NO 22 0 min 0,000 mm 0 W/m -9,0 C -6,6 C 4,8 km/h (1 Bft) 88 %
28.01.2017 05:40 -6,7 C -6,7 C -6,5 C 83 % 1019,8 hPa 0,0 l/m 3,2 km/h (1 Bft) N-NO 22 0 min 0,000 mm 0 W/m -9,1 C -6,7 C 4,8 km/h (1 Bft) 97 %
28.01.2017 05:50 -6,8 C -6,8 C -6,7 C 83 % 1019,9 hPa 0,0 l/m 0,0 km/h (0 Bft) N-NO 22 0 min 0,000 mm 0 W/m -9,2 C -6,8 C 3,2 km/h (1 Bft) 98 %
28.01.2017 06:00 -6,9 C -6,9 C -6,8 C 83 % 1019,9 hPa 0,0 l/m 0,0 km/h (0 Bft) N 0 0 min 0,000 mm 0 W/m -9,3 C -6,9 C 0,0 km/h (0 Bft) 97 %
28.01.2017 06:10 -7,1 C -7,1 C -6,9 C 83 % 1020,0 hPa 0,0 l/m 0,0 km/h (0 Bft) N 0 0 min 0,000 mm 0 W/m -9,5 C -7,1 C 0,0 km/h (0 Bft) 98 %
28.01.2017 06:20 -7,2 C -7,2 C -7,1 C 84 % 1019,9 hPa 0,0 l/m 0,0 km/h (0 Bft) N-NO 22 0 min 0,000 mm 0 W/m -9,4 C -7,2 C 4,8 km/h (1 Bft) 98 %
28.01.2017 06:30 -7,3 C -7,3 C -7,2 C 84 % 1020,1 hPa 0,0 l/m 0,0 km/h (0 Bft) N-NO 22 0 min 0,000 mm 0 W/m -9,5 C -7,3 C 4,8 km/h (1 Bft) 100 %
28.01.2017 06:40 -7,4 C -7,4 C -7,3 C 84 % 1020,0 hPa 0,0 l/m 0,0 km/h (0 Bft) N 0 0 min 0,000 mm 0 W/m -9,6 C -7,4 C 0,0 km/h (0 Bft) 100 %
28.01.2017 06:50 -7,6 C -7,6 C -7,4 C 84 % 1020,3 hPa 0,0 l/m 0,0 km/h (0 Bft) N 0 0 min 0,000 mm 0 W/m -9,8 C -7,6 C 0,0 km/h (0 Bft) 100 %
28.01.2017 07:00 -7,8 C -7,8 C -7,6 C 85 % 1020,3 hPa 0,0 l/m 0,0 km/h (0 Bft) N 0 0 min 0,000 mm 0 W/m -9,9 C -7,8 C 0,0 km/h (0 Bft) 100 %
28.01.2017 07:10 -7,9 C -8,0 C -7,8 C 86 % 1020,2 hPa 0,0 l/m 0,0 km/h (0 Bft) N 0 0 min 0,000 mm 0 W/m -9,8 C -7,9 C 0,0 km/h (0 Bft) 88 %
28.01.2017 07:20 -8,2 C -8,2 C -8,0 C 86 % 1020,3 hPa 0,0 l/m 0,0 km/h (0 Bft) N-NO 22 0 min 0,000 mm 0 W/m -10,1 C -8,2 C 3,2 km/h (1 Bft) 100 %
28.01.2017 07:30 -8,3 C -8,3 C -8,2 C 86 % 1020,4 hPa 0,0 l/m 0,0 km/h (0 Bft) N 0 0 min 0,000 mm 0 W/m -10,2 C -8,3 C 0,0 km/h (0 Bft) 100 %
28.01.2017 07:40 -8,4 C -8,4 C -8,3 C 86 % 1020,4 hPa 0,0 l/m 0,0 km/h (0 Bft) N 0 0 min 0,000 mm 0 W/m -10,3 C -8,4 C 0,0 km/h (0 Bft) 100 %
28.01.2017 07:50 -8,5 C -8,5 C -8,4 C 87 % 1020,3 hPa 0,0 l/m 0,0 km/h (0 Bft) N 0 0 min 0,000 mm 0 W/m -10,3 C -8,5 C 0,0 km/h (0 Bft) 100 %
28.01.2017 08:00 -8,4 C -8,5 C -8,4 C 88 % 1020,5 hPa 0,0 l/m 0,0 km/h (0 Bft) N-NO 22 0 min 0,000 mm 5 W/m -10,0 C -8,4 C 3,2 km/h (1 Bft) 92 %
28.01.2017 08:10 -8,4 C -8,4 C -8,4 C 88 % 1020,7 hPa 0,0 l/m 0,0 km/h (0 Bft) N-NO 22 0 min 0,000 mm 11 W/m -10,0 C -8,4 C 4,8 km/h (1 Bft) 100 %
28.01.2017 08:20 -8,5 C -8,5 C -8,4 C 88 % 1020,8 hPa 0,0 l/m 0,0 km/h (0 Bft) N 0 0 min 0,000 mm 18 W/m -10,1 C -8,5 C 0,0 km/h (0 Bft) 100 %
28.01.2017 08:30 -8,5 C -8,5 C -8,5 C 88 % 1021,0 hPa 0,0 l/m 0,0 km/h (0 Bft) N 0 0 min 0,000 mm 23 W/m -10,1 C -8,5 C 0,0 km/h (0 Bft) 100 %
28.01.2017 08:40 -8,4 C -8,5 C -8,4 C 89 % 1021,0 hPa 0,0 l/m 0,0 km/h (0 Bft) N 0 0 min 0,000 mm 33 W/m -9,9 C -8,4 C 0,0 km/h (0 Bft) 100 %
28.01.2017 08:50 -8,3 C -8,4 C -8,3 C 89 % 1021,0 hPa 0,0 l/m 0,0 km/h (0 Bft) N-NO 22 0 min 0,000 mm 44 W/m -9,8 C -8,3 C 3,2 km/h (1 Bft) 90 %
28.01.2017 09:00 -8,2 C -8,3 C -8,2 C 88 % 1021,1 hPa 0,0 l/m 0,0 km/h (0 Bft) N-NO 22 0 min 0,000 mm 51 W/m -9,8 C -8,2 C 3,2 km/h (1 Bft) 100 %
28.01.2017 09:10 -8,1 C -8,2 C -8,1 C 88 % 1021,1 hPa 0,0 l/m 0,0 km/h (0 Bft) N 0 0 min 0,000 mm 81 W/m -9,7 C -8,1 C 0,0 km/h (0 Bft) 100 %
28.01.2017 09:20 -7,8 C -8,1 C -7,8 C 88 % 1021,1 hPa 0,0 l/m 0,0 km/h (0 Bft) N 0 0 min 0,000 mm 116 W/m -9,4 C -7,8 C 0,0 km/h (0 Bft) 100 %
28.01.2017 09:30 -7,4 C -7,8 C -7,4 C 87 % 1021,1 hPa 0,0 l/m 0,0 km/h (0 Bft) N 0 10 min 0,000 mm 155 W/m -9,2 C -7,4 C 0,0 km/h (0 Bft) 100 %
28.01.2017 09:40 -6,9 C -7,4 C -6,9 C 86 % 1021,0 hPa 0,0 l/m 0,0 km/h (0 Bft) N 0 10 min 0,000 mm 188 W/m -8,8 C -6,9 C 0,0 km/h (0 Bft) 100 %
28.01.2017 09:50 -6,4 C -6,9 C -6,4 C 85 % 1021,0 hPa 0,0 l/m 0,0 km/h (0 Bft) N 0 10 min 0,000 mm 216 W/m -8,5 C -6,4 C 0,0 km/h (0 Bft) 100 %
28.01.2017 10:00 -5,8 C -6,4 C -5,8 C 84 % 1020,9 hPa 0,0 l/m 0,0 km/h (0 Bft) N-NO 22 10 min 0,025 mm 227 W/m -8,1 C -5,8 C 3,2 km/h (1 Bft) 100 %
28.01.2017 10:10 -5,0 C -5,7 C -5,0 C 82 % 1020,9 hPa 0,0 l/m 0,0 km/h (0 Bft) N 0 10 min 0,000 mm 239 W/m -7,6 C -5,0 C 0,0 km/h (0 Bft) 99 %
28.01.2017 10:20 -4,1 C -5,7 C -4,1 C 79 % 1021,0 hPa 0,0 l/m 0,0 km/h (0 Bft) N-NO 22 10 min 0,000 mm 244 W/m -7,2 C -4,1 C 0,0 km/h (0 Bft) 100 %
28.01.2017 10:30 -3,7 C -4,1 C -3,7 C 76 % 1021,1 hPa 0,0 l/m 0,0 km/h (0 Bft) N-NO 22 10 min 0,000 mm 267 W/m -7,3 C -3,7 C 0,0 km/h (0 Bft) 99 %
28.01.2017 10:40 -3,3 C -3,7 C -3,3 C 76 % 1021,0 hPa 0,0 l/m 0,0 km/h (0 Bft) N-NO 22 10 min 0,000 mm 272 W/m -6,9 C -3,3 C 0,0 km/h (0 Bft) 100 %
28.01.2017 10:50 -2,6 C -3,3 C -2,6 C 74 % 1021,1 hPa 0,0 l/m 0,0 km/h (0 Bft) N-NO 22 10 min 0,000 mm 271 W/m -6,6 C -2,6 C 0,0 km/h (0 Bft) 100 %
28.01.2017 11:00 -1,9 C -2,6 C -1,9 C 78 % 1021,2 hPa 0,0 l/m 0,0 km/h (0 Bft) N-NO 22 10 min 0,077 mm 295 W/m -5,2 C -1,9 C 0,0 km/h (0 Bft) 100 %
28.01.2017 11:10 -1,4 C -1,9 C -1,4 C 71 % 1021,1 hPa 0,0 l/m 0,0 km/h (0 Bft) N-NO 22 10 min 0,000 mm 308 W/m -6,0 C -1,4 C 0,0 km/h (0 Bft) 100 %
28.01.2017 11:20 -0,9 C -1,4 C -0,9 C 70 % 1021,3 hPa 0,0 l/m 0,0 km/h (0 Bft) N-NO 22 10 min 0,000 mm 278 W/m -5,7 C -0,9 C 0,0 km/h (0 Bft) 100 %
28.01.2017 11:30 -0,8 C -0,9 C -0,8 C 70 % 1021,2 hPa 0,0 l/m 0,0 km/h (0 Bft) N-NO 22 10 min 0,000 mm 283 W/m -5,6 C -0,8 C 0,0 km/h (0 Bft) 100 %
28.01.2017 11:40 -0,8 C -0,8 C -0,8 C 69 % 1021,2 hPa 0,0 l/m 0,2 km/h (0 Bft) N-NO 22 10 min 0,000 mm 309 W/m -5,8 C -0,8 C 3,2 km/h (1 Bft) 100 %
28.01.2017 11:50 -0,5 C -0,8 C -0,5 C 68 % 1020,9 hPa 0,0 l/m 0,0 km/h (0 Bft) N-NO 22 10 min 0,000 mm 311 W/m -5,7 C -0,5 C 0,0 km/h (0 Bft) 100 %
28.01.2017 12:00 -0,6 C -0,6 C -0,4 C 68 % 1020,9 hPa 0,0 l/m 0,0 km/h (0 Bft) N-NO 22 10 min 0,101 mm 271 W/m -5,8 C -0,6 C 1,6 km/h (1 Bft) 100 %
28.01.2017 12:10 -0,4 C -0,6 C -0,4 C 68 % 1021,1 hPa 0,0 l/m 0,2 km/h (0 Bft) N-NO 20 10 min 0,000 mm 302 W/m -5,6 C -0,4 C 4,8 km/h (1 Bft) 100 %
28.01.2017 12:20 -0,1 C -0,4 C -0,1 C 67 % 1021,2 hPa 0,0 l/m 0,7 km/h (0 Bft) N-NO 14 10 min 0,000 mm 320 W/m -5,5 C -0,1 C 4,8 km/h (1 Bft) 100 %
28.01.2017 12:30 0,2 C -0,1 C 0,2 C 67 % 1021,1 hPa 0,0 l/m 0,3 km/h (0 Bft) N-NO 12 10 min 0,000 mm 295 W/m -5,2 C 0,2 C 3,2 km/h (1 Bft) 100 %
28.01.2017 12:40 0,3 C 0,2 C 0,3 C 66 % 1021,2 hPa 0,0 l/m 0,3 km/h (0 Bft) N-NO 12 10 min 0,000 mm 276 W/m -5,3 C 0,3 C 3,2 km/h (1 Bft) 99 %
28.01.2017 12:50 0,2 C 0,2 C 0,3 C 66 % 1021,1 hPa 0,0 l/m 0,0 km/h (0 Bft) N-NO 12 10 min 0,000 mm 209 W/m -5,4 C 0,2 C 0,0 km/h (0 Bft) 100 %
28.01.2017 13:00 -0,1 C -0,1 C 0,2 C 68 % 1021,1 hPa 0,0 l/m 0,0 km/h (0 Bft) N-NO 12 10 min 0,102 mm 234 W/m -5,3 C -0,1 C 0,0 km/h (0 Bft) 100 %
28.01.2017 13:10 -0,1 C -0,1 C 0,0 C 67 % 1021,1 hPa 0,0 l/m 0,1 km/h (0 Bft) N-NO 12 10 min 0,000 mm 255 W/m -5,5 C -0,1 C 3,2 km/h (1 Bft) 100 %
28.01.2017 13:20 0,1 C -0,1 C 0,1 C 68 % 1021,0 hPa 0,0 l/m 0,0 km/h (0 Bft) N-NO 12 10 min 0,000 mm 299 W/m -5,1 C 0,1 C 1,6 km/h (1 Bft) 100 %
28.01.2017 13:30 0,3 C 0,1 C 0,3 C 67 % 1020,9 hPa 0,0 l/m 0,5 km/h (0 Bft) N-NO 12 10 min 0,000 mm 276 W/m -5,1 C 0,3 C 3,2 km/h (1 Bft) 100 %
28.01.2017 13:40 0,4 C 0,3 C 0,4 C 67 % 1020,9 hPa 0,0 l/m 0,0 km/h (0 Bft) N-NO 12 10 min 0,000 mm 272 W/m -5,0 C 0,4 C 0,0 km/h (0 Bft) 100 %
28.01.2017 13:50 0,5 C 0,4 C 0,5 C 66 % 1020,9 hPa 0,0 l/m 0,0 km/h (0 Bft) N-NO 13 10 min 0,000 mm 267 W/m -5,1 C 0,5 C 1,6 km/h (1 Bft) 100 %
28.01.2017 14:00 0,6 C 0,5 C 0,6 C 67 % 1020,7 hPa 0,0 l/m 0,0 km/h (0 Bft) N-NO 13 10 min 0,076 mm 178 W/m -4,8 C 0,6 C 1,6 km/h (1 Bft) 100 %
28.01.2017 14:10 0,9 C 0,6 C 0,9 C 65 % 1020,7 hPa 0,0 l/m 0,0 km/h (0 Bft) N-NO 13 10 min 0,000 mm 290 W/m -4,9 C 0,9 C 0,0 km/h (0 Bft) 100 %
28.01.2017 14:20 1,4 C 0,9 C 1,4 C 65 % 1020,6 hPa 0,0 l/m 0,0 km/h (0 Bft) N-NO 12 10 min 0,000 mm 276 W/m -4,4 C 1,4 C 0,0 km/h (0 Bft) 100 %
28.01.2017 14:30 1,5 C 1,4 C 1,5 C 66 % 1020,6 hPa 0,0 l/m 0,0 km/h (0 Bft) N-NO 13 10 min 0,000 mm 214 W/m -4,1 C 1,5 C 0,0 km/h (0 Bft) 98 %
28.01.2017 14:40 1,5 C 1,4 C 1,5 C 67 % 1020,7 hPa 0,0 l/m 0,1 km/h (0 Bft) N-NO 12 10 min 0,000 mm 197 W/m -3,9 C 1,5 C 3,2 km/h (1 Bft) 100 %
28.01.2017 14:50 1,7 C 1,5 C 1,7 C 66 % 1020,8 hPa 0,0 l/m 0,2 km/h (0 Bft) N-NO 12 10 min 0,000 mm 192 W/m -4,0 C 1,7 C 3,2 km/h (1 Bft) 100 %
28.01.2017 15:00 1,8 C 1,7 C 1,8 C 66 % 1020,7 hPa 0,0 l/m 0,0 km/h (0 Bft) N-NO 12 10 min 0,076 mm 237 W/m -3,9 C 1,8 C 1,6 km/h (1 Bft) 100 %
28.01.2017 15:10 1,9 C 1,8 C 1,9 C 65 % 1020,7 hPa 0,0 l/m 0,0 km/h (0 Bft) N-NO 12 0 min 0,000 mm 113 W/m -4,0 C 1,9 C 0,0 km/h (0 Bft) 100 %
28.01.2017 15:20 1,9 C 1,9 C 2,0 C 66 % 1020,5 hPa 0,0 l/m 0,0 km/h (0 Bft) N-NO 12 0 min 0,000 mm 76 W/m -3,8 C 1,9 C 0,0 km/h (0 Bft) 100 %
28.01.2017 15:30 1,8 C 1,8 C 1,9 C 68 % 1020,4 hPa 0,0 l/m 0,0 km/h (0 Bft) N-NO 12 0 min 0,000 mm 65 W/m -3,5 C 1,8 C 0,0 km/h (0 Bft) 100 %
28.01.2017 15:40 1,8 C 1,7 C 1,8 C 66 % 1020,6 hPa 0,0 l/m 0,3 km/h (0 Bft) N 5 0 min 0,000 mm 58 W/m -3,9 C 1,8 C 4,8 km/h (1 Bft) 98 %
28.01.2017 15:50 1,5 C 1,5 C 1,8 C 67 % 1020,5 hPa 0,0 l/m 0,9 km/h (0 Bft) N 11 0 min 0,000 mm 54 W/m -3,9 C 1,5 C 4,8 km/h (1 Bft) 93 %
28.01.2017 16:00 1,2 C 1,2 C 1,5 C 67 % 1020,4 hPa 0,0 l/m 1,0 km/h (0 Bft) N-NO 15 0 min 0,026 mm 47 W/m -4,2 C 1,2 C 4,8 km/h (1 Bft) 100 %
28.01.2017 16:10 0,9 C 0,9 C 1,2 C 68 % 1020,6 hPa 0,0 l/m 1,1 km/h (1 Bft) N-NO 15 0 min 0,000 mm 40 W/m -4,3 C 0,9 C 4,8 km/h (1 Bft) 100 %
28.01.2017 16:20 0,8 C 0,7 C 0,9 C 68 % 1020,7 hPa 0,0 l/m 0,0 km/h (0 Bft) N-NO 15 0 min 0,000 mm 35 W/m -4,4 C 0,8 C 0,0 km/h (0 Bft) 100 %
28.01.2017 16:30 0,6 C 0,6 C 0,8 C 68 % 1020,7 hPa 0,0 l/m 0,0 km/h (0 Bft) N-NO 15 0 min 0,000 mm 30 W/m -4,6 C 0,6 C 0,0 km/h (0 Bft) 100 %
28.01.2017 16:40 0,4 C 0,4 C 0,6 C 69 % 1020,7 hPa 0,0 l/m 0,0 km/h (0 Bft) N-NO 15 0 min 0,000 mm 25 W/m -4,6 C 0,4 C 0,0 km/h (0 Bft) 100 %
28.01.2017 16:50 0,2 C 0,2 C 0,4 C 69 % 1020,8 hPa 0,0 l/m 0,0 km/h (0 Bft) N-NO 15 0 min 0,000 mm 16 W/m -4,8 C 0,2 C 0,0 km/h (0 Bft) 100 %
28.01.2017 17:00 0,0 C 0,0 C 0,2 C 69 % 1020,9 hPa 0,0 l/m 0,0 km/h (0 Bft) N-NO 15 0 min 0,025 mm 9 W/m -5,0 C 0,0 C 0,0 km/h (0 Bft) 100 %
28.01.2017 17:10 -0,2 C -0,2 C 0,0 C 70 % 1020,9 hPa 0,0 l/m 0,0 km/h (0 Bft) N-NO 15 0 min 0,000 mm 5 W/m -5,0 C -0,2 C 0,0 km/h (0 Bft) 100 %
28.01.2017 17:20 -0,4 C -0,4 C -0,2 C 70 % 1020,9 hPa 0,0 l/m 0,0 km/h (0 Bft) N-NO 15 0 min 0,000 mm 0 W/m -5,2 C -0,4 C 0,0 km/h (0 Bft) 100 %
28.01.2017 17:30 -0,8 C -0,8 C -0,4 C 72 % 1021,0 hPa 0,0 l/m 0,0 km/h (0 Bft) N-NO 15 0 min 0,000 mm 0 W/m -5,2 C -0,8 C 0,0 km/h (0 Bft) 91 %
28.01.2017 17:40 -1,1 C -1,1 C -0,8 C 74 % 1021,0 hPa 0,0 l/m 3,0 km/h (1 Bft) N-NO 17 0 min 0,000 mm 0 W/m -5,1 C -1,1 C 4,8 km/h (1 Bft) 100 %
28.01.2017 17:50 -1,2 C -1,2 C -1,1 C 74 % 1021,0 hPa 0,0 l/m 3,2 km/h (1 Bft) N-NO 17 0 min 0,000 mm 0 W/m -5,2 C -1,2 C 4,8 km/h (1 Bft) 99 %
28.01.2017 18:00 -1,4 C -1,4 C -1,2 C 74 % 1021,2 hPa 0,0 l/m 0,8 km/h (0 Bft) N-NO 17 0 min 0,000 mm 0 W/m -5,4 C -1,4 C 4,8 km/h (1 Bft) 100 %
28.01.2017 18:10 -1,7 C -1,7 C -1,4 C 74 % 1021,4 hPa 0,0 l/m 0,0 km/h (0 Bft) N-NO 17 0 min 0,000 mm 0 W/m -5,7 C -1,7 C 0,0 km/h (0 Bft) 100 %
28.01.2017 18:20 -2,0 C -2,0 C -1,7 C 76 % 1021,3 hPa 0,0 l/m 0,0 km/h (0 Bft) N-NO 17 0 min 0,000 mm 0 W/m -5,6 C -2,0 C 0,0 km/h (0 Bft) 100 %
28.01.2017 18:30 -2,2 C -2,2 C -2,0 C 77 % 1021,3 hPa 0,0 l/m 0,0 km/h (0 Bft) N-NO 17 0 min 0,000 mm 0 W/m -5,7 C -2,2 C 1,6 km/h (1 Bft) 100 %
28.01.2017 18:40 -2,4 C -2,4 C -2,2 C 77 % 1021,4 hPa 0,0 l/m 0,0 km/h (0 Bft) N-NO 17 0 min 0,000 mm 0 W/m -5,9 C -2,4 C 0,0 km/h (0 Bft) 100 %
28.01.2017 18:50 -2,8 C -2,8 C -2,4 C 78 % 1021,3 hPa 0,0 l/m 0,0 km/h (0 Bft) N-NO 17 0 min 0,000 mm 0 W/m -6,1 C -2,8 C 0,0 km/h (0 Bft) 100 %
28.01.2017 19:00 -3,1 C -3,1 C -2,8 C 79 % 1021,3 hPa 0,0 l/m 0,0 km/h (0 Bft) N-NO 17 0 min 0,000 mm 0 W/m -6,2 C -3,1 C 1,6 km/h (1 Bft) 100 %
28.01.2017 19:10 -3,2 C -3,2 C -3,1 C 79 % 1021,2 hPa 0,0 l/m 0,0 km/h (0 Bft) N-NO 17 0 min 0,000 mm 0 W/m -6,3 C -3,2 C 0,0 km/h (0 Bft) 100 %
28.01.2017 19:20 -3,4 C -3,4 C -3,2 C 80 % 1021,2 hPa 0,0 l/m 0,0 km/h (0 Bft) N-NO 17 0 min 0,000 mm 0 W/m -6,3 C -3,4 C 1,6 km/h (1 Bft) 98 %
28.01.2017 19:30 -3,6 C -3,6 C -3,4 C 81 % 1021,2 hPa 0,0 l/m 0,4 km/h (0 Bft) N-NO 16 0 min 0,000 mm 0 W/m -6,4 C -3,6 C 3,2 km/h (1 Bft) 100 %
28.01.2017 19:40 -3,6 C -3,7 C -3,6 C 81 % 1021,3 hPa 0,0 l/m 1,1 km/h (1 Bft) N-NO 16 0 min 0,000 mm 0 W/m -6,4 C -3,6 C 3,2 km/h (1 Bft) 92 %
28.01.2017 19:50 -3,7 C -3,7 C -3,6 C 81 % 1021,2 hPa 0,0 l/m 0,0 km/h (0 Bft) N-NO 16 0 min 0,000 mm 0 W/m -6,5 C -3,7 C 0,0 km/h (0 Bft) 100 %
28.01.2017 20:00 -3,8 C -3,8 C -3,7 C 81 % 1021,3 hPa 0,0 l/m 1,3 km/h (1 Bft) N-NO 16 0 min 0,000 mm 0 W/m -6,6 C -3,8 C 4,8 km/h (1 Bft) 100 %
28.01.2017 20:10 -3,9 C -3,9 C -3,8 C 81 % 1021,3 hPa 0,0 l/m 0,7 km/h (0 Bft) N-NO 14 0 min 0,000 mm 0 W/m -6,7 C -3,9 C 4,8 km/h (1 Bft) 100 %
28.01.2017 20:20 -4,1 C -4,1 C -3,9 C 82 % 1021,4 hPa 0,0 l/m 0,3 km/h (0 Bft) N 11 0 min 0,000 mm 0 W/m -6,7 C -4,1 C 4,8 km/h (1 Bft) 99 %
28.01.2017 20:30 -4,3 C -4,3 C -4,1 C 82 % 1021,4 hPa 0,0 l/m 0,2 km/h (0 Bft) N 11 0 min 0,000 mm 0 W/m -6,9 C -4,3 C 3,2 km/h (1 Bft) 100 %
28.01.2017 20:40 -4,6 C -4,6 C -4,3 C 82 % 1021,5 hPa 0,0 l/m 0,9 km/h (0 Bft) N 11 0 min 0,000 mm 0 W/m -7,2 C -4,6 C 3,2 km/h (1 Bft) 100 %
28.01.2017 20:50 -4,8 C -4,8 C -4,6 C 83 % 1021,5 hPa 0,0 l/m 0,0 km/h (0 Bft) N 11 0 min 0,000 mm 0 W/m -7,2 C -4,8 C 0,0 km/h (0 Bft) 99 %
28.01.2017 21:00 -4,9 C -4,9 C -4,8 C 84 % 1021,6 hPa 0,0 l/m 0,0 km/h (0 Bft) N 11 0 min 0,000 mm 0 W/m -7,2 C -4,9 C 0,0 km/h (0 Bft) 100 %
28.01.2017 21:10 -5,0 C -5,0 C -4,9 C 84 % 1021,6 hPa 0,0 l/m 1,1 km/h (1 Bft) N 11 0 min 0,000 mm 0 W/m -7,3 C -5,0 C 3,2 km/h (1 Bft) 100 %
28.01.2017 21:20 -5,1 C -5,1 C -5,0 C 84 % 1021,6 hPa 0,0 l/m 0,0 km/h (0 Bft) N 11 0 min 0,000 mm 0 W/m -7,4 C -5,1 C 0,0 km/h (0 Bft) 100 %
28.01.2017 21:30 -5,1 C -5,1 C -5,1 C 85 % 1021,7 hPa 0,0 l/m 0,0 km/h (0 Bft) N 11 0 min 0,000 mm 0 W/m -7,2 C -5,1 C 0,0 km/h (0 Bft) 100 %
28.01.2017 21:40 -4,9 C -5,1 C -4,9 C 85 % 1021,7 hPa 0,0 l/m 0,0 km/h (0 Bft) N 11 0 min 0,000 mm 0 W/m -7,0 C -4,9 C 0,0 km/h (0 Bft) 91 %
28.01.2017 21:50 -4,8 C -4,9 C -4,8 C 84 % 1021,7 hPa 0,0 l/m 0,0 km/h (0 Bft) N 11 0 min 0,000 mm 0 W/m -7,1 C -4,8 C 0,0 km/h (0 Bft) 100 %
28.01.2017 22:00 -4,8 C -4,9 C -4,8 C 84 % 1021,9 hPa 0,0 l/m 0,1 km/h (0 Bft) N 11 0 min 0,000 mm 0 W/m -7,1 C -4,8 C 1,6 km/h (1 Bft) 100 %
28.01.2017 22:10 -4,9 C -4,9 C -4,8 C 84 % 1021,9 hPa 0,0 l/m 0,0 km/h (0 Bft) N 11 0 min 0,000 mm 0 W/m -7,2 C -4,9 C 1,6 km/h (1 Bft) 100 %
28.01.2017 22:20 -5,1 C -5,1 C -4,9 C 84 % 1022,1 hPa 0,0 l/m 1,5 km/h (1 Bft) N 11 0 min 0,000 mm 0 W/m -7,4 C -5,1 C 4,8 km/h (1 Bft) 100 %
28.01.2017 22:30 -5,2 C -5,2 C -5,1 C 85 % 1022,1 hPa 0,0 l/m 0,5 km/h (0 Bft) N 11 0 min 0,000 mm 0 W/m -7,3 C -5,2 C 3,2 km/h (1 Bft) 100 %
28.01.2017 22:40 -5,3 C -5,3 C -5,2 C 85 % 1022,1 hPa 0,0 l/m 0,3 km/h (0 Bft) N 11 0 min 0,000 mm 0 W/m -7,4 C -5,3 C 3,2 km/h (1 Bft) 100 %
28.01.2017 22:50 -5,4 C -5,4 C -5,3 C 85 % 1022,3 hPa 0,0 l/m 0,0 km/h (0 Bft) N 11 0 min 0,000 mm 0 W/m -7,5 C -5,4 C 0,0 km/h (0 Bft) 100 %
28.01.2017 23:00 -5,4 C -5,4 C -5,4 C 85 % 1022,4 hPa 0,0 l/m 0,1 km/h (0 Bft) N 11 0 min 0,000 mm 0 W/m -7,5 C -5,4 C 3,2 km/h (1 Bft) 100 %
28.01.2017 23:10 -5,6 C -5,6 C -5,4 C 85 % 1022,5 hPa 0,0 l/m 1,9 km/h (1 Bft) N 11 0 min 0,000 mm 0 W/m -7,7 C -5,6 C 3,2 km/h (1 Bft) 91 %
28.01.2017 23:20 -5,7 C -5,7 C -5,6 C 86 % 1022,5 hPa 0,0 l/m 1,0 km/h (0 Bft) N 11 0 min 0,000 mm 0 W/m -7,7 C -5,7 C 3,2 km/h (1 Bft) 100 %
28.01.2017 23:30 -5,7 C -5,7 C -5,7 C 86 % 1022,5 hPa 0,0 l/m 0,1 km/h (0 Bft) N 11 0 min 0,000 mm 0 W/m -7,7 C -5,7 C 3,2 km/h (1 Bft) 100 %
28.01.2017 23:40 -5,7 C -5,7 C -5,7 C 86 % 1022,5 hPa 0,0 l/m 0,0 km/h (0 Bft) N 11 0 min 0,000 mm 0 W/m -7,7 C -5,7 C 0,0 km/h (0 Bft) 91 %
28.01.2017 23:50 -5,8 C -5,8 C -5,7 C 86 % 1022,6 hPa 0,0 l/m 0,0 km/h (0 Bft) N 11 0 min 0,000 mm 0 W/m -7,8 C -5,8 C 0,0 km/h (0 Bft) 99 %
_ Min-Zeit 07:50 07:50 08:30 14:10 02:10 - 00:20 - - - - - 07:40 07:50 00:20 03:30
Minimum _ -8,5 C -8,5 C -8,5 C 65 % 1019,7 hPa - 0,0 km/h (0 Bft) - - - - - -10,3 C -8,5 C 0,0 km/h (0 Bft) 88 %
_ Max-Zeit 15:20 15:20 15:20 08:40 23:50 00:00 02:10 - - 09:30 13:00 12:20 15:30 15:10 02:10 06:40
Maximum _ 2,0 C 1,9 C 2,0 C 89 % 1022,6 hPa 0,0 l/m 4,8 km/h
N-NO (1 Bft)
- - 10 min 0,102 mm 320 W/m -3,5 C 1,9 C 8,0 km/h
N-NO (2 Bft)
100 %
Durchschnitt _ -3,7 C -3,8 C -3,6 C 78 % 1020,8 hPa #0,0 l/m 0,3 km/h (0 Bft) N-NO - #5:40 h #0,508 mm 173 W/m -7,0 C -3,7 C 1,7 km/h (1 Bft) 98 %
PRIVATE WETTERSTATION BILLIGHEIM-ALLFELD - www.neckar-odenwald-wetter.de - Holger Sonntag